<?xml version="1.0" encoding="utf-8"?>
<gpx xmlns:xsi="http://www.w3.org/2001/XMLSchema-instance" xmlns:xsd="http://www.w3.org/2001/XMLSchema" version="1.1" creator="Shapelink.com" xmlns="http://www.topografix.com/GPX/1/1" xmlns:gpxtpx="http://www.garmin.com/xmlschemas/TrackPointExtension/v1">
  <metadata>
    <name>Övrigt 1.87 km, 2019-07-15</name>
    <desc></desc>
    <author><name>Marian Moron</name></author> 
    <time>2019-07-15T20:18:01Z</time>
  </metadata>
  <trk>
    <name>Övrigt 1.87 km, 2019-07-15</name>
    <trkseg>
      <trkpt lat="51.229914050747" lon="4.457870432034">
        <ele>16</ele>
        <time>2019-07-15T20:18:01Z</time>
      </trkpt>
      <trkpt lat="51.229921343" lon="4.457881244685">
        <ele>15.2</ele>
        <time>2019-07-15T20:18:03Z</time>
      </trkpt>
      <trkpt lat="51.229968700735" lon="4.458333364371">
        <ele>11</ele>
        <time>2019-07-15T20:18:28Z</time>
      </trkpt>
      <trkpt lat="51.229968868373" lon="4.458355157311">
        <ele>10.6</ele>
        <time>2019-07-15T20:18:35Z</time>
      </trkpt>
      <trkpt lat="51.22998756001" lon="4.45842313452">
        <ele>10.4</ele>
        <time>2019-07-15T20:18:43Z</time>
      </trkpt>
      <trkpt lat="51.230041958541" lon="4.458801661124">
        <ele>3.6</ele>
        <time>2019-07-15T20:19:09Z</time>
      </trkpt>
      <trkpt lat="51.230387711916" lon="4.458803002228">
        <ele>0.2</ele>
        <time>2019-07-15T20:19:51Z</time>
      </trkpt>
      <trkpt lat="51.230470022174" lon="4.458894616395">
        <ele>0</ele>
        <time>2019-07-15T20:19:58Z</time>
      </trkpt>
      <trkpt lat="51.23050639962" lon="4.459078180005">
        <ele>0.4</ele>
        <time>2019-07-15T20:20:22Z</time>
      </trkpt>
      <trkpt lat="51.23053741265" lon="4.459290074437">
        <ele>0.2</ele>
        <time>2019-07-15T20:20:39Z</time>
      </trkpt>
      <trkpt lat="51.230590050982" lon="4.459617387632">
        <ele>0.6</ele>
        <time>2019-07-15T20:21:01Z</time>
      </trkpt>
      <trkpt lat="51.230741511915" lon="4.459748061453">
        <ele>0</ele>
        <time>2019-07-15T20:21:43Z</time>
      </trkpt>
      <trkpt lat="51.230755258231" lon="4.459721071735">
        <ele>0</ele>
        <time>2019-07-15T20:21:45Z</time>
      </trkpt>
      <trkpt lat="51.230882579292" lon="4.45961587889">
        <ele>0</ele>
        <time>2019-07-15T20:22:09Z</time>
      </trkpt>
      <trkpt lat="51.231213329066" lon="4.459588386258">
        <ele>0.2</ele>
        <time>2019-07-15T20:22:46Z</time>
      </trkpt>
      <trkpt lat="51.231473922337" lon="4.459611268845">
        <ele>0</ele>
        <time>2019-07-15T20:23:16Z</time>
      </trkpt>
      <trkpt lat="51.231695958868" lon="4.459610095379">
        <ele>0</ele>
        <time>2019-07-15T20:23:39Z</time>
      </trkpt>
      <trkpt lat="51.231777766212" lon="4.459622668229">
        <ele>0</ele>
        <time>2019-07-15T20:23:45Z</time>
      </trkpt>
      <trkpt lat="51.231858316271" lon="4.459851158823">
        <ele>0</ele>
        <time>2019-07-15T20:23:59Z</time>
      </trkpt>
      <trkpt lat="51.231945739488" lon="4.460250556358">
        <ele>1.8</ele>
        <time>2019-07-15T20:24:35Z</time>
      </trkpt>
      <trkpt lat="51.231971807197" lon="4.460328088933">
        <ele>0</ele>
        <time>2019-07-15T20:25:02Z</time>
      </trkpt>
      <trkpt lat="51.232072054721" lon="4.461033593456">
        <ele>9.6</ele>
        <time>2019-07-15T20:25:40Z</time>
      </trkpt>
      <trkpt lat="51.232076832404" lon="4.461052871826">
        <ele>10</ele>
        <time>2019-07-15T20:25:41Z</time>
      </trkpt>
      <trkpt lat="51.23218026505" lon="4.461734990848">
        <ele>11.4</ele>
        <time>2019-07-15T20:26:29Z</time>
      </trkpt>
      <trkpt lat="51.232189317502" lon="4.461760974738">
        <ele>11.6</ele>
        <time>2019-07-15T20:26:31Z</time>
      </trkpt>
      <trkpt lat="51.232215804306" lon="4.462072865237">
        <ele>13.8</ele>
        <time>2019-07-15T20:26:51Z</time>
      </trkpt>
      <trkpt lat="51.232259390186" lon="4.462527080398">
        <ele>28.8</ele>
        <time>2019-07-15T20:27:20Z</time>
      </trkpt>
      <trkpt lat="51.232287218094" lon="4.462620454764">
        <ele>31.6</ele>
        <time>2019-07-15T20:27:27Z</time>
      </trkpt>
      <trkpt lat="51.232265508973" lon="4.462789098592">
        <ele>35.6</ele>
        <time>2019-07-15T20:27:51Z</time>
      </trkpt>
      <trkpt lat="51.232164507078" lon="4.462825978952">
        <ele>27</ele>
        <time>2019-07-15T20:28:25Z</time>
      </trkpt>
      <trkpt lat="51.231997036716" lon="4.463476665849">
        <ele>10.4</ele>
        <time>2019-07-15T20:29:03Z</time>
      </trkpt>
      <trkpt lat="51.23196568841" lon="4.463525029412">
        <ele>8</ele>
        <time>2019-07-15T20:29:22Z</time>
      </trkpt>
      <trkpt lat="51.231899052305" lon="4.463574314984">
        <ele>7.4</ele>
        <time>2019-07-15T20:29:29Z</time>
      </trkpt>
      <trkpt lat="51.231478783839" lon="4.463298215198">
        <ele>2</ele>
        <time>2019-07-15T20:30:15Z</time>
      </trkpt>
      <trkpt lat="51.231375351193" lon="4.463167122282">
        <ele>2.6</ele>
        <time>2019-07-15T20:30:49Z</time>
      </trkpt>
      <trkpt lat="51.231237468938" lon="4.463182628797">
        <ele>0.8</ele>
        <time>2019-07-15T20:31:04Z</time>
      </trkpt>
      <trkpt lat="51.231118697415" lon="4.463243816667">
        <ele>2.4</ele>
        <time>2019-07-15T20:31:28Z</time>
      </trkpt>
      <trkpt lat="51.23087101227" lon="4.463338783594">
        <ele>3.6</ele>
        <time>2019-07-15T20:32:06Z</time>
      </trkpt>
      <trkpt lat="51.230434482918" lon="4.463521760471">
        <ele>10.6</ele>
        <time>2019-07-15T20:32:44Z</time>
      </trkpt>
      <trkpt lat="51.230434566737" lon="4.463584540902">
        <ele>9.6</ele>
        <time>2019-07-15T20:32:48Z</time>
      </trkpt>
      <trkpt lat="51.230492569485" lon="4.463787382882">
        <ele>7.2</ele>
        <time>2019-07-15T20:32:59Z</time>
      </trkpt>
      <trkpt lat="51.230484774318" lon="4.463815294609">
        <ele>7.6</ele>
        <time>2019-07-15T20:33:01Z</time>
      </trkpt>
      <trkpt lat="51.230379330016" lon="4.463849828037">
        <ele>4.8</ele>
        <time>2019-07-15T20:34:18Z</time>
      </trkpt>
      <trkpt lat="51.230306491305" lon="4.463930378096">
        <ele>5.6</ele>
        <time>2019-07-15T20:34:38Z</time>
      </trkpt>
      <trkpt lat="51.229926958873" lon="4.464266911381">
        <ele>7.8</ele>
        <time>2019-07-15T20:35:25Z</time>
      </trkpt>
      <trkpt lat="51.229650942906" lon="4.464323824482">
        <ele>8.4</ele>
        <time>2019-07-15T20:36:04Z</time>
      </trkpt>
      <trkpt lat="51.229528986261" lon="4.464310832537">
        <ele>7.8</ele>
        <time>2019-07-15T20:36:16Z</time>
      </trkpt>
      <trkpt lat="51.22949889524" lon="4.464317370419">
        <ele>7.6</ele>
        <time>2019-07-15T20:36:19Z</time>
      </trkpt>
      <trkpt lat="51.229427062357" lon="4.464312844193">
        <ele>7.8</ele>
        <time>2019-07-15T20:36:29Z</time>
      </trkpt>
      <trkpt lat="51.22897083554" lon="4.464357268263">
        <ele>10.6</ele>
        <time>2019-07-15T20:37:13Z</time>
      </trkpt>
      <trkpt lat="51.228693897564" lon="4.464580394441">
        <ele>5</ele>
        <time>2019-07-15T20:38:40Z</time>
      </trkpt>
      <trkpt lat="51.22857520986" lon="4.464381324316">
        <ele>6.8</ele>
        <time>2019-07-15T20:39:03Z</time>
      </trkpt>
      <trkpt lat="51.22859197366" lon="4.464106481815">
        <ele>9.4</ele>
        <time>2019-07-15T20:39:51Z</time>
      </trkpt>
      <trkpt lat="51.228494575982" lon="4.46373977369">
        <ele>5.4</ele>
        <time>2019-07-15T20:40:17Z</time>
      </trkpt>
      <trkpt lat="51.228352167501" lon="4.463472726356">
        <ele>0.6</ele>
        <time>2019-07-15T20:40:48Z</time>
      </trkpt>
      <trkpt lat="51.228007671411" lon="4.463020858127">
        <ele>12.8</ele>
        <time>2019-07-15T20:41:40Z</time>
      </trkpt>
      <trkpt lat="51.227966013368" lon="4.463018175919">
        <ele>13.6</ele>
        <time>2019-07-15T20:41:43Z</time>
      </trkpt>
      <trkpt lat="51.227820671222" lon="4.462810723894">
        <ele>15.6</ele>
        <time>2019-07-15T20:42:37Z</time>
      </trkpt>
      <trkpt lat="51.227817318462" lon="4.462100022593">
        <ele>9</ele>
        <time>2019-07-15T20:43:23Z</time>
      </trkpt>
      <trkpt lat="51.227799465015" lon="4.46174907244">
        <ele>8.8</ele>
        <time>2019-07-15T20:43:50Z</time>
      </trkpt>
      <trkpt lat="51.227798794463" lon="4.461583278458">
        <ele>5.6</ele>
        <time>2019-07-15T20:44:07Z</time>
      </trkpt>
      <trkpt lat="51.227818911023" lon="4.460864865809">
        <ele>7.6</ele>
        <time>2019-07-15T20:44:52Z</time>
      </trkpt>
      <trkpt lat="51.227900634548" lon="4.460438897651">
        <ele>4.4</ele>
        <time>2019-07-15T20:45:20Z</time>
      </trkpt>
      <trkpt lat="51.228033822939" lon="4.460438227099">
        <ele>12.4</ele>
        <time>2019-07-15T20:45:40Z</time>
      </trkpt>
      <trkpt lat="51.228247058475" lon="4.460307637097">
        <ele>15.2</ele>
        <time>2019-07-15T20:46:08Z</time>
      </trkpt>
      <trkpt lat="51.228349317655" lon="4.460019132099">
        <ele>10.4</ele>
        <time>2019-07-15T20:46:27Z</time>
      </trkpt>
      <trkpt lat="51.228331380389" lon="4.459709085618">
        <ele>0</ele>
        <time>2019-07-15T20:47:03Z</time>
      </trkpt>
      <trkpt lat="51.228396423933" lon="4.459545219473">
        <ele>0</ele>
        <time>2019-07-15T20:47:18Z</time>
      </trkpt>
      <trkpt lat="51.228522487709" lon="4.458881289174">
        <ele>5.8</ele>
        <time>2019-07-15T20:47:54Z</time>
      </trkpt>
      <trkpt lat="51.228537742767" lon="4.458184753284">
        <ele>0.4</ele>
        <time>2019-07-15T20:48:48Z</time>
      </trkpt>
      <trkpt lat="51.228550315617" lon="4.458176036108">
        <ele>0.8</ele>
        <time>2019-07-15T20:48:49Z</time>
      </trkpt>
      <trkpt lat="51.228753995787" lon="4.458160026679">
        <ele>7</ele>
        <time>2019-07-15T20:49:15Z</time>
      </trkpt>
      <trkpt lat="51.228894057336" lon="4.458152734426">
        <ele>11.2</ele>
        <time>2019-07-15T20:49:49Z</time>
      </trkpt>
      <trkpt lat="51.229335280552" lon="4.457977971811">
        <ele>0</ele>
        <time>2019-07-15T20:50:21Z</time>
      </trkpt>
      <trkpt lat="51.229360258614" lon="4.45796296821">
        <ele>0</ele>
        <time>2019-07-15T20:50:23Z</time>
      </trkpt>
      <trkpt lat="51.229401078467" lon="4.457939750347">
        <ele>0</ele>
        <time>2019-07-15T20:50:27Z</time>
      </trkpt>
      <trkpt lat="51.229670891828" lon="4.457961124192">
        <ele>3</ele>
        <time>2019-07-15T20:51:01Z</time>
      </trkpt>
      <trkpt lat="51.229836853448" lon="4.457841682117">
        <ele>5.6</ele>
        <time>2019-07-15T20:51:23Z</time>
      </trkpt>
      <trkpt lat="51.229873398532" lon="4.457731376313">
        <ele>4.8</ele>
        <time>2019-07-15T20:52:09Z</time>
      </trkpt>
      <trkpt lat="51.229700563754" lon="4.4579218969">
        <ele>19</ele>
        <time>2019-07-15T20:53:00Z</time>
      </trkpt>
    </trkseg>
  </trk>
</gpx>